Time;durP1;ratioP1;P1;durP2;ratioP2;P2;SDS_P1;SDS_P2;PMS_P1;PMS_P2;Temp;Humidity;BMP_temperature;BMP_pressure;BME280_temperature;BME280_humidity;BME280_pressure;Samples;Min_cycle;Max_cycle;Signal;HPM_P1;HPM_P2
2023/05/27 00:03:18;;;;;;;10.32;4.47;;;;;;;;;;21004504;28;20041;-65
2023/05/27 00:13:20;;;;;;;11.43;4.63;;;;;;;;;;21003847;28;20041;-64
2023/05/27 00:23:21;;;;;;;6.32;3.78;;;;;;;;;;21001506;28;20052;-64
2023/05/27 00:33:22;;;;;;;9.73;4.25;;;;;;;;;;21000977;28;20055;-66
2023/05/27 00:43:23;;;;;;;7.93;3.83;;;;;;;;;;21001054;28;20079;-64
2023/05/27 00:53:24;;;;;;;7.72;4.40;;;;;;;;;;21000792;28;20075;-64
2023/05/27 01:03:25;;;;;;;12.02;4.63;;;;;;;;;;21000062;28;20072;-64
2023/05/27 01:13:26;;;;;;;9.73;4.50;;;;;;;;;;20999209;28;20040;-66
2023/05/27 01:23:28;;;;;;;10.68;5.15;;;;;;;;;;20998439;28;20048;-66
2023/05/27 01:33:30;;;;;;;11.23;4.50;;;;;;;;;;20997994;28;20075;-66
2023/05/27 01:43:32;;;;;;;8.82;4.28;;;;;;;;;;20997781;28;20055;-66
2023/05/27 01:53:34;;;;;;;10.23;4.50;;;;;;;;;;20996358;28;20074;-65
2023/05/27 02:03:35;;;;;;;10.85;4.03;;;;;;;;;;20996807;28;20142;-66
2023/05/27 02:13:37;;;;;;;9.18;4.65;;;;;;;;;;20996491;28;20094;-65
2023/05/27 02:23:38;;;;;;;11.20;5.00;;;;;;;;;;20994482;28;20049;-66
2023/05/27 02:33:39;;;;;;;7.82;4.43;;;;;;;;;;20995774;28;20076;-66
2023/05/27 02:43:40;;;;;;;7.68;3.95;;;;;;;;;;20995360;28;20101;-66
2023/05/27 02:53:41;;;;;;;10.98;4.10;;;;;;;;;;20993830;28;20037;-66
2023/05/27 03:03:42;;;;;;;12.02;4.63;;;;;;;;;;21000327;28;20078;-65
2023/05/27 03:13:43;;;;;;;9.88;5.00;;;;;;;;;;21007404;28;20041;-65
2023/05/27 03:23:45;;;;;;;11.45;4.57;;;;;;;;;;21006497;28;20057;-66
2023/05/27 03:33:46;;;;;;;11.10;4.50;;;;;;;;;;21006174;28;20044;-65
2023/05/27 03:43:47;;;;;;;13.02;4.57;;;;;;;;;;21005588;28;20048;-66
2023/05/27 03:53:48;;;;;;;14.95;4.72;;;;;;;;;;21004734;28;20041;-66
2023/05/27 04:03:49;;;;;;;11.38;4.93;;;;;;;;;;21002812;28;20090;-66
2023/05/27 04:13:50;;;;;;;11.90;4.97;;;;;;;;;;21001663;28;20098;-66
2023/05/27 04:23:51;;;;;;;9.90;4.85;;;;;;;;;;21002703;28;20044;-65
2023/05/27 04:33:54;;;;;;;10.20;5.03;;;;;;;;;;21002068;28;20451;-66
2023/05/27 04:43:56;;;;;;;14.02;5.07;;;;;;;;;;20999610;28;20131;-66
2023/05/27 04:53:57;;;;;;;9.10;5.07;;;;;;;;;;20998816;28;20052;-64
2023/05/27 05:04:12;;;;;;;16.17;5.60;;;;;;;;;;20998283;28;20049;-66
2023/05/27 05:14:13;;;;;;;15.63;5.70;;;;;;;;;;20998535;28;20436;-66
2023/05/27 05:24:14;;;;;;;16.33;5.93;;;;;;;;;;20997957;28;20052;-66
2023/05/27 05:34:15;;;;;;;13.00;5.75;;;;;;;;;;20996081;28;20053;-65
2023/05/27 05:44:17;;;;;;;21.67;11.25;;;;;;;;;;20996793;28;20493;-66
2023/05/27 05:54:18;;;;;;;14.85;6.13;;;;;;;;;;20996685;28;20052;-66
2023/05/27 06:04:19;;;;;;;16.70;5.57;;;;;;;;;;20996173;28;20128;-66
2023/05/27 06:14:22;;;;;;;11.80;5.43;;;;;;;;;;20994558;28;20128;-66
2023/05/27 06:24:23;;;;;;;10.48;4.95;;;;;;;;;;20994556;28;20123;-66
2023/05/27 06:34:24;;;;;;;13.77;4.85;;;;;;;;;;20995304;28;20063;-66
2023/05/27 06:44:25;;;;;;;13.40;5.28;;;;;;;;;;21010204;28;20044;-65
2023/05/27 06:54:26;;;;;;;9.88;4.40;;;;;;;;;;21009429;28;20041;-66
2023/05/27 07:04:28;;;;;;;15.18;5.20;;;;;;;;;;21009170;28;20048;-66
2023/05/27 07:14:29;;;;;;;19.17;5.10;;;;;;;;;;21007145;28;20058;-65
2023/05/27 07:24:30;;;;;;;10.32;4.40;;;;;;;;;;21007854;28;20521;-66
2023/05/27 07:34:31;;;;;;;13.38;4.80;;;;;;;;;;21006308;28;20561;-66
2023/05/27 07:44:32;;;;;;;13.25;5.32;;;;;;;;;;21006029;28;20078;-65
2023/05/27 07:54:33;;;;;;;18.58;4.47;;;;;;;;;;21001857;28;20106;-66
2023/05/27 08:04:34;;;;;;;12.63;4.43;;;;;;;;;;21003930;28;20562;-66
2023/05/27 08:14:35;;;;;;;11.38;4.20;;;;;;;;;;21002502;28;20047;-67
2023/05/27 08:24:36;;;;;;;11.85;4.28;;;;;;;;;;21001994;28;20045;-65
2023/05/27 08:34:38;;;;;;;16.58;5.07;;;;;;;;;;21000491;28;20048;-66
2023/05/27 08:44:40;;;;;;;11.25;4.47;;;;;;;;;;20999521;28;20040;-64
2023/05/27 08:54:41;;;;;;;14.48;4.68;;;;;;;;;;21000059;28;20063;-65
2023/05/27 09:04:43;;;;;;;16.42;4.80;;;;;;;;;;20998860;28;20044;-64
2023/05/27 09:14:44;;;;;;;9.48;4.38;;;;;;;;;;20998229;28;20048;-64
2023/05/27 09:24:45;;;;;;;10.23;4.45;;;;;;;;;;20996280;28;20052;-66
2023/05/27 09:34:47;;;;;;;15.60;5.18;;;;;;;;;;20995997;28;20049;-66
2023/05/27 09:44:48;;;;;;;7.88;4.78;;;;;;;;;;20993528;28;20076;-67
2023/05/27 09:54:50;;;;;;;13.85;5.05;;;;;;;;;;20995397;28;20043;-68
2023/05/27 10:04:51;;;;;;;11.68;4.95;;;;;;;;;;20995489;28;20101;-68
2023/05/27 10:14:53;;;;;;;9.75;4.97;;;;;;;;;;21004341;28;20041;-68
2023/05/27 10:24:54;;;;;;;10.75;4.70;;;;;;;;;;21011465;28;20127;-68
2023/05/27 10:34:58;;;;;;;11.70;5.60;;;;;;;;;;21009810;28;20056;-68
2023/05/27 10:45:04;;;;;;;14.88;5.97;;;;;;;;;;21009778;28;20054;-68
2023/05/27 10:55:06;;;;;;;10.23;4.65;;;;;;;;;;21007609;28;20102;-69
2023/05/27 11:05:11;;;;;;;9.43;4.53;;;;;;;;;;21007420;28;20503;-68
2023/05/27 11:15:12;;;;;;;10.93;4.63;;;;;;;;;;21007496;28;20075;-68
2023/05/27 11:25:13;;;;;;;9.27;4.97;;;;;;;;;;21005648;28;20064;-67
2023/05/27 11:35:15;;;;;;;9.43;4.15;;;;;;;;;;21005088;28;20169;-68
2023/05/27 11:45:17;;;;;;;12.18;5.22;;;;;;;;;;21005865;28;20045;-68
2023/05/27 11:55:18;;;;;;;9.50;4.35;;;;;;;;;;21004234;28;20405;-68
2023/05/27 12:05:19;;;;;;;9.68;4.80;;;;;;;;;;21003739;28;20405;-70
2023/05/27 12:15:20;;;;;;;17.73;6.35;;;;;;;;;;21003273;28;20115;-63
2023/05/27 12:25:21;;;;;;;12.27;4.97;;;;;;;;;;21001402;28;20119;-64
2023/05/27 12:35:23;;;;;;;12.85;5.80;;;;;;;;;;21001034;28;20066;-63
2023/05/27 12:45:25;;;;;;;12.75;5.70;;;;;;;;;;21000320;28;20059;-63
2023/05/27 12:55:26;;;;;;;12.68;6.30;;;;;;;;;;21000109;28;20055;-63
2023/05/27 13:05:27;;;;;;;12.93;5.07;;;;;;;;;;20999023;28;20041;-63
2023/05/27 13:15:29;;;;;;;8.07;4.25;;;;;;;;;;20998432;28;20048;-63
2023/05/27 13:25:31;;;;;;;12.05;4.97;;;;;;;;;;20997505;28;20053;-63
2023/05/27 13:35:32;;;;;;;10.75;4.65;;;;;;;;;;20996361;28;20131;-63
2023/05/27 13:45:33;;;;;;;7.95;4.40;;;;;;;;;;20994708;28;20040;-63
2023/05/27 13:55:34;;;;;;;9.77;5.18;;;;;;;;;;20996687;28;20174;-63
2023/05/27 14:05:36;;;;;;;13.05;6.35;;;;;;;;;;20996229;28;20072;-63
2023/05/27 14:15:37;;;;;;;12.73;6.75;;;;;;;;;;20995881;28;20044;-64
2023/05/27 14:25:38;;;;;;;12.32;6.82;;;;;;;;;;20994725;28;20405;-63
2023/05/27 14:35:40;;;;;;;18.63;7.65;;;;;;;;;;20995057;28;20551;-63
2023/05/27 14:45:41;;;;;;;10.50;5.68;;;;;;;;;;20993050;28;20181;-63
2023/05/27 14:55:42;;;;;;;12.60;7.22;;;;;;;;;;20994215;28;20463;-62
2023/05/27 15:05:43;;;;;;;11.93;5.55;;;;;;;;;;21008784;28;20367;-62
2023/05/27 15:15:44;;;;;;;11.82;6.53;;;;;;;;;;21008233;28;20387;-63
2023/05/27 15:25:45;;;;;;;16.55;7.18;;;;;;;;;;21006559;28;20056;-62
2023/05/27 15:35:48;;;;;;;13.95;6.43;;;;;;;;;;21006448;28;20055;-64
2023/05/27 15:45:49;;;;;;;10.57;6.28;;;;;;;;;;21005502;28;20513;-62
2023/05/27 15:55:50;;;;;;;12.23;5.65;;;;;;;;;;21004782;28;20490;-62
2023/05/27 16:05:51;;;;;;;14.20;6.18;;;;;;;;;;21002587;28;20048;-62
2023/05/27 16:15:53;;;;;;;12.50;5.20;;;;;;;;;;21002263;28;20098;-62
2023/05/27 16:25:55;;;;;;;9.00;5.05;;;;;;;;;;21001567;28;20505;-63
2023/05/27 16:35:56;;;;;;;18.20;10.10;;;;;;;;;;21001003;28;20441;-62
2023/05/27 16:45:57;;;;;;;14.98;6.93;;;;;;;;;;20999197;28;20094;-63
2023/05/27 16:55:58;;;;;;;14.85;6.30;;;;;;;;;;20998927;28;20484;-63
2023/05/27 17:05:59;;;;;;;18.30;6.65;;;;;;;;;;20997813;28;20040;-63
2023/05/27 17:16:00;;;;;;;11.38;5.80;;;;;;;;;;20997623;28;20051;-67
2023/05/27 17:26:01;;;;;;;13.65;7.30;;;;;;;;;;20996797;28;20105;-67
2023/05/27 17:36:02;;;;;;;8.48;5.13;;;;;;;;;;20996705;28;20052;-66
2023/05/27 17:46:04;;;;;;;10.50;5.82;;;;;;;;;;20996702;28;20424;-66
2023/05/27 17:56:05;;;;;;;12.65;6.30;;;;;;;;;;20995941;28;20550;-66
2023/05/27 18:06:07;;;;;;;15.57;6.35;;;;;;;;;;20995309;28;20478;-67
2023/05/27 18:16:08;;;;;;;10.30;6.15;;;;;;;;;;20994987;28;20486;-66
2023/05/27 18:26:09;;;;;;;13.55;6.78;;;;;;;;;;20994279;28;20401;-64
2023/05/27 18:36:11;;;;;;;9.75;6.57;;;;;;;;;;21003192;28;20044;-64
2023/05/27 18:46:12;;;;;;;14.40;5.95;;;;;;;;;;21010785;28;20044;-63
2023/05/27 18:56:13;;;;;;;10.90;6.00;;;;;;;;;;21009607;28;20429;-64
2023/05/27 19:06:14;;;;;;;11.82;6.70;;;;;;;;;;21006764;28;20044;-64
2023/05/27 19:16:15;;;;;;;13.90;7.15;;;;;;;;;;21007086;28;20494;-64
2023/05/27 19:26:16;;;;;;;9.80;5.78;;;;;;;;;;21006130;28;20567;-64
2023/05/27 19:36:18;;;;;;;10.93;6.03;;;;;;;;;;21006672;28;20413;-65
2023/05/27 19:46:19;;;;;;;12.98;6.85;;;;;;;;;;21004387;28;20045;-64
2023/05/27 19:56:20;;;;;;;10.43;5.70;;;;;;;;;;21004246;28;20052;-67
2023/05/27 20:06:21;;;;;;;12.15;6.85;;;;;;;;;;21003487;28;20041;-64
2023/05/27 20:16:23;;;;;;;14.38;7.32;;;;;;;;;;21002319;28;20075;-65
2023/05/27 20:26:25;;;;;;;13.52;6.25;;;;;;;;;;21001761;28;20079;-65
2023/05/27 20:36:26;;;;;;;15.23;6.82;;;;;;;;;;21001101;28;20045;-64
2023/05/27 20:46:28;;;;;;;10.88;7.63;;;;;;;;;;21001004;28;20079;-64
2023/05/27 20:56:29;;;;;;;16.67;9.00;;;;;;;;;;20998171;28;20040;-64
2023/05/27 21:06:30;;;;;;;15.50;8.73;;;;;;;;;;20998976;28;20111;-65
2023/05/27 21:16:32;;;;;;;16.92;10.40;;;;;;;;;;20997773;28;20091;-65
2023/05/27 21:26:33;;;;;;;10.00;3.38;;;;;;;;;;20997325;28;20048;-64
2023/05/27 21:36:35;;;;;;;5.63;1.85;;;;;;;;;;20998428;28;20558;-65
2023/05/27 21:46:36;;;;;;;5.63;1.63;;;;;;;;;;20996548;28;20044;-64
2023/05/27 21:56:39;;;;;;;5.20;1.45;;;;;;;;;;20997176;28;20044;-65
2023/05/27 22:06:41;;;;;;;5.03;1.42;;;;;;;;;;20996062;28;20044;-65
2023/05/27 22:16:42;;;;;;;3.85;1.10;;;;;;;;;;20995230;28;20055;-65
2023/05/27 22:26:43;;;;;;;6.40;1.80;;;;;;;;;;20995568;28;20060;-64
2023/05/27 22:36:44;;;;;;;4.90;1.20;;;;;;;;;;20995509;28;20098;-64
2023/05/27 22:46:46;;;;;;;2.83;1.15;;;;;;;;;;20995013;28;20056;-64
2023/05/27 22:56:47;;;;;;;4.55;1.52;;;;;;;;;;20993869;28;20048;-64
2023/05/27 23:06:48;;;;;;;4.25;1.10;;;;;;;;;;20994715;28;20119;-65
2023/05/27 23:16:52;;;;;;;3.28;1.27;;;;;;;;;;20995458;28;20051;-65
2023/05/27 23:26:54;;;;;;;2.78;1.23;;;;;;;;;;21007989;28;20049;-64
2023/05/27 23:36:55;;;;;;;3.42;1.25;;;;;;;;;;21007996;28;20517;-65
2023/05/27 23:46:59;;;;;;;3.92;1.13;;;;;;;;;;21007074;28;20049;-64
2023/05/27 23:57:01;;;;;;;1.63;0.70;;;;;;;;;;21006576;28;20044;-64
